KADG/ADG METAR and TAF weather

Enter ICAO airport designator
Station Type Date Time Source
KADG METAR 2021/03/08 15:53 UTC NOAA

KADG 081553Z AUTO 23013G20KT 10SM CLR 09/M02 A3032 RMK AO2 SLP277 T00891022


Station Type Date Time Source
KADG Decoded METAR 2021/03/08 15:53 UTC NOAA

ADRIAN LENAWEE COUNTY AIRPORT, MI, United States (KADG) 41-52N 84-05W 241M
Mar 08, 2021 - 10:53 AM EST / 2021.03.08 1553 UTC
Wind: from the SW (230 degrees) at 15 MPH (13 KT) gusting to 23 MPH (20 KT):0
Visibility: 10 mile(s):0
Sky conditions: clear
Temperature: 48.0 F (8.9 C)
Dew Point: 28.0 F (-2.2 C)
Relative Humidity: 45%
Pressure (altimeter): 30.32 in. Hg (1026 hPa)
ob: KADG 081553Z AUTO 23013G20KT 10SM CLR 09/M02 A3032 RMK AO2 SLP277 T00891022
cycle: 16

Station Type Date Time Source
KADG TAF UTC NOAA

Error!

Example: see airport list